CDT,Max TemperatureF,Mean TemperatureF,Min TemperatureF,Max Dew PointF,MeanDew PointF,Min DewpointF,Max Humidity, Mean Humidity, Min Humidity, Max Sea Level PressureIn, Mean Sea Level PressureIn, Min Sea Level PressureIn, Max VisibilityMiles, Mean VisibilityMiles, Min VisibilityMiles, Max Wind SpeedMPH, Mean Wind SpeedMPH, Max Gust SpeedMPH,PrecipitationIn, CloudCover, Events, WindDirDegrees
2013-7-1,84,75,65,65,63,60,93,72,51,29.93,29.85,29.78,10,10,10,16,5,21,0.00,2,,347
2013-7-2,85,74,62,63,61,57,93,67,40,30.03,29.97,29.91,10,10,8,12,3,16,0.00,1,,331
2013-7-3,88,75,62,67,61,57,87,62,36,30.08,30.04,30.00,10,9,6,12,3,15,0.00,1,,75
2013-7-4,85,79,72,70,68,66,87,71,55,30.04,30.01,29.96,10,10,10,14,5,17,0.00,5,,108
2013-7-5,84,78,71,70,69,66,93,78,63,30.08,30.04,30.00,10,9,4,17,4,23,0.29,6,Rain-Thunderstorm,167
2013-7-6,87,80,72,70,69,67,93,72,51,30.09,30.05,29.99,10,10,10,14,6,17,0.00,5,Rain,168
2013-7-7,89,81,72,72,70,69,87,71,55,30.13,30.08,30.03,10,10,10,8,5,10,0.00,5,,187
2013-7-8,91,82,73,73,71,70,93,71,49,30.17,30.12,30.07,10,9,3,9,2,13,0.00,5,,197
2013-7-9,95,84,73,74,72,70,94,70,46,30.15,30.09,30.02,10,10,10,7,4,9,0.00,1,,247
2013-7-10,97,86,75,74,73,70,88,67,46,30.06,29.98,29.91,10,10,10,12,6,17,0.00,1,Thunderstorm,264
2013-7-11,89,82,75,75,73,68,87,70,53,29.96,29.92,29.88,10,10,10,14,5,17,0.00,3,Thunderstorm,231
2013-7-12,90,79,68,70,63,61,84,62,40,29.98,29.94,29.92,10,10,10,16,9,20,0.00,1,,44
2013-7-13,89,76,62,66,62,59,90,64,38,30.00,29.97,29.92,10,10,10,15,6,20,0.00,0,Thunderstorm,48
2013-7-14,87,80,72,73,69,66,90,71,51,30.08,30.03,29.95,10,10,10,21,7,25,0.01,3,Rain-Thunderstorm,121
2013-7-15,90,82,74,73,71,70,94,73,52,30.19,30.14,30.07,10,10,10,9,8,13,0.10,4,Rain,135
2013-7-16,93,83,72,71,69,67,87,67,47,30.26,30.22,30.19,10,10,10,13,6,16,0.00,1,,138
2013-7-17,96,84,71,73,70,68,93,68,43,30.29,30.22,30.14,10,10,6,12,4,17,0.00,0,,59
2013-7-18,89,81,73,73,72,69,87,72,56,30.16,30.11,30.04,10,10,4,15,4,17,0.16,2,Rain-Thunderstorm,203
2013-7-19,92,82,71,73,71,68,93,73,52,30.07,30.01,29.95,10,10,10,14,4,16,0.02,3,Rain-Thunderstorm,218
2013-7-20,93,83,73,73,71,68,93,71,49,30.00,29.95,29.86,10,9,1,22,5,25,0.55,2,Rain-Thunderstorm,189
2013-7-21,94,85,75,74,71,68,94,69,44,29.99,29.94,29.90,10,10,10,9,6,12,0.00,1,Thunderstorm,235
2013-7-22,83,77,70,75,70,66,94,84,74,30.03,29.96,29.91,10,8,2,21,7,25,0.65,5,Rain-Thunderstorm,247
2013-7-23,84,77,70,75,72,68,97,81,65,29.99,29.92,29.87,10,9,0,28,4,47,0.68,5,Fog-Rain-Thunderstorm,257
2013-7-24,90,82,73,74,72,69,94,75,55,29.92,29.88,29.85,10,9,1,33,2,40,0.35,3,Rain-Thunderstorm,302
2013-7-25,86,77,68,72,65,63,93,71,48,30.03,30.01,29.96,10,10,10,13,7,23,0.00,0,,19
2013-7-26,86,75,64,68,65,62,93,72,51,30.06,30.01,29.97,10,10,10,8,3,10,0.00,1,,4
2013-7-27,83,77,70,69,67,63,90,72,54,29.98,29.94,29.90,10,10,9,10,3,14,0.00,6,,27
2013-7-28,85,77,68,68,66,65,93,72,51,30.06,30.00,29.93,10,10,9,13,6,15,0.00,1,,40
2013-7-29,88,77,65,67,63,59,93,68,43,30.15,30.10,30.05,10,10,10,9,5,13,0.00,0,,80
2013-7-30,94,82,70,74,68,63,84,67,49,30.16,30.10,30.04,10,10,10,12,4,16,0.00,2,Thunderstorm,196
2013-7-31,91,84,76,74,72,69,87,70,52,30.06,29.99,29.93,10,10,10,12,3,16,0.13,4,Thunderstorm,260